KMGM/MGM METAR and TAF weather

Enter ICAO airport designator
Station Type Date Time Source
KMGM METAR 2021/05/15 01:53 UTC NOAA

KMGM 150153Z 00000KT 10SM CLR 17/12 A3021 RMK AO2 SLP227 T01670117


Station Type Date Time Source
KMGM Decoded METAR 2021/05/15 01:53 UTC NOAA

MONTGOMERY DANNELLY FIELD, AL, United States (KMGM) 32-18N 86-24W 63M
May 14, 2021 - 09:53 PM EDT / 2021.05.15 0153 UTC
Wind: Calm:0
Visibility: 10 mile(s):0
Sky conditions: clear
Temperature: 62.1 F (16.7 C)
Dew Point: 53.1 F (11.7 C)
Relative Humidity: 72%
Pressure (altimeter): 30.21 in. Hg (1023 hPa)
ob: KMGM 150153Z 00000KT 10SM CLR 17/12 A3021 RMK AO2 SLP227 T01670117
cycle: 2

Station Type Date Time Source
KMGM TAF 2021/05/14 18:21 UTC NOAA

TAF KMGM 141720Z 1418/1518 06005KT P6SM SCT080
FM150100 VRB03KT P6SM FEW120
FM151600 13006KT P6SM SCT060

Example: see airport list